Time,TemperatureF,DewpointF,PressureIn,WindDirection,WindDirectionDegrees,WindSpeedMPH,WindSpeedGustMPH,Humidity,HourlyPrecipIn,Conditions,Clouds,dailyrainin,SoftwareType,DateUTC
2013-06-25 00:00:00,60.0,-99.9,-100.00,SW,221,6.0,8.0,-999,-99.99,,,-99.99,,2013-06-25 06:00:00,
2013-06-25 00:43:00,60.0,-99.9,-100.00,SW,221,6.0,8.0,-999,-99.99,,,-99.99,,2013-06-25 06:43:00,
2013-06-25 00:52:00,60.0,-99.9,-100.00,SW,221,6.0,8.0,-999,-99.99,,,-99.99,,2013-06-25 06:52:00,
2013-06-25 01:00:00,64.0,-99.9,-100.00,SSW,206,7.0,13.0,-999,-99.99,,,-99.99,,2013-06-25 07:00:00,
2013-06-25 01:43:00,64.0,-99.9,-100.00,SSW,206,7.0,13.0,-999,-99.99,,,-99.99,,2013-06-25 07:43:00,
2013-06-25 01:52:00,64.0,-99.9,-100.00,SSW,206,7.0,13.0,-999,-99.99,,,-99.99,,2013-06-25 07:52:00,
2013-06-25 02:00:00,61.0,-99.9,-100.00,WSW,257,9.0,12.0,-999,-99.99,,,-99.99,,2013-06-25 08:00:00,
2013-06-25 02:43:00,61.0,-99.9,-100.00,WSW,257,9.0,12.0,-999,-99.99,,,-99.99,,2013-06-25 08:43:00,
2013-06-25 02:53:00,61.0,-99.9,-100.00,WSW,257,9.0,12.0,-999,-99.99,,,-99.99,,2013-06-25 08:53:00,
2013-06-25 03:00:00,61.0,-99.9,-100.00,WSW,239,4.0,5.0,-999,-99.99,,,-99.99,,2013-06-25 09:00:00,
2013-06-25 03:43:00,61.0,-99.9,-100.00,WSW,239,4.0,5.0,-999,-99.99,,,-99.99,,2013-06-25 09:43:00,
2013-06-25 03:53:00,61.0,-99.9,-100.00,WSW,239,4.0,5.0,-999,-99.99,,,-99.99,,2013-06-25 09:53:00,
2013-06-25 04:00:00,58.0,-99.9,-100.00,WSW,245,4.0,5.0,-999,-99.99,,,-99.99,,2013-06-25 10:00:00,
2013-06-25 04:43:00,58.0,-99.9,-100.00,WSW,245,4.0,5.0,-999,-99.99,,,-99.99,,2013-06-25 10:43:00,
2013-06-25 04:52:00,58.0,-99.9,-100.00,WSW,245,4.0,5.0,-999,-99.99,,,-99.99,,2013-06-25 10:52:00,
2013-06-25 05:00:00,51.0,-99.9,-100.00,SW,220,2.0,9.0,-999,-99.99,,,-99.99,,2013-06-25 11:00:00,
2013-06-25 05:43:00,51.0,-99.9,-100.00,SW,220,2.0,9.0,-999,-99.99,,,-99.99,,2013-06-25 11:43:00,
2013-06-25 05:52:00,51.0,-99.9,-100.00,SW,220,2.0,9.0,-999,-99.99,,,-99.99,,2013-06-25 11:52:00,
2013-06-25 06:00:00,51.0,-99.9,-100.00,West,280,7.0,9.0,-999,-99.99,,,-99.99,,2013-06-25 12:00:00,
2013-06-25 06:43:00,51.0,-99.9,-100.00,West,280,7.0,9.0,-999,-99.99,,,-99.99,,2013-06-25 12:43:00,
2013-06-25 06:55:00,51.0,-99.9,-100.00,West,280,7.0,9.0,-999,-99.99,,,-99.99,,2013-06-25 12:55:00,
2013-06-25 07:00:00,56.0,-99.9,-100.00,WSW,253,3.0,5.0,-999,-99.99,,,-99.99,,2013-06-25 13:00:00,
2013-06-25 07:43:00,56.0,-99.9,-100.00,WSW,253,3.0,5.0,-999,-99.99,,,-99.99,,2013-06-25 13:43:00,
2013-06-25 07:54:00,56.0,-99.9,-100.00,WSW,253,3.0,5.0,-999,-99.99,,,-99.99,,2013-06-25 13:54:00,
2013-06-25 08:00:00,61.0,-99.9,-100.00,WNW,288,7.0,8.0,-999,-99.99,,,-99.99,,2013-06-25 14:00:00,
2013-06-25 08:43:00,61.0,-99.9,-100.00,WNW,288,7.0,8.0,-999,-99.99,,,-99.99,,2013-06-25 14:43:00,
2013-06-25 08:53:00,61.0,-99.9,-100.00,WNW,288,7.0,8.0,-999,-99.99,,,-99.99,,2013-06-25 14:53:00,
2013-06-25 09:00:00,65.0,-99.9,-100.00,West,263,14.0,26.0,-999,-99.99,,,-99.99,,2013-06-25 15:00:00,
2013-06-25 09:53:00,65.0,-99.9,-100.00,West,263,14.0,26.0,-999,-99.99,,,-99.99,,2013-06-25 15:53:00,
2013-06-25 10:00:00,66.0,-99.9,-100.00,West,273,19.0,30.0,-999,-99.99,,,-99.99,,2013-06-25 16:00:00,
2013-06-25 10:35:00,66.0,-99.9,-100.00,West,273,19.0,30.0,-999,-99.99,,,-99.99,,2013-06-25 16:35:00,
2013-06-25 10:44:00,66.0,-99.9,-100.00,West,273,19.0,30.0,-999,-99.99,,,-99.99,,2013-06-25 16:44:00,
2013-06-25 10:52:00,66.0,-99.9,-100.00,West,273,19.0,30.0,-999,-99.99,,,-99.99,,2013-06-25 16:52:00,
2013-06-25 11:00:00,67.0,-99.9,-100.00,WNW,285,18.0,23.0,-999,-99.99,,,-99.99,,2013-06-25 17:00:00,
2013-06-25 11:44:00,67.0,-99.9,-100.00,WNW,285,18.0,23.0,-999,-99.99,,,-99.99,,2013-06-25 17:44:00,
2013-06-25 11:53:00,67.0,-99.9,-100.00,WNW,285,18.0,23.0,-999,-99.99,,,-99.99,,2013-06-25 17:53:00,
2013-06-25 12:00:00,70.0,-99.9,-100.00,West,275,25.0,33.0,-999,-99.99,,,-99.99,,2013-06-25 18:00:00,
2013-06-25 12:45:00,70.0,-99.9,-100.00,West,275,25.0,33.0,-999,-99.99,,,-99.99,,2013-06-25 18:45:00,
2013-06-25 12:53:00,70.0,-99.9,-100.00,West,275,25.0,33.0,-999,-99.99,,,-99.99,,2013-06-25 18:53:00,
2013-06-25 13:00:00,69.0,-99.9,-100.00,West,277,24.0,27.0,-999,-99.99,,,-99.99,,2013-06-25 19:00:00,
2013-06-25 13:44:00,69.0,-99.9,-100.00,West,277,24.0,27.0,-999,-99.99,,,-99.99,,2013-06-25 19:44:00,
2013-06-25 13:54:00,69.0,-99.9,-100.00,West,277,24.0,27.0,-999,-99.99,,,-99.99,,2013-06-25 19:54:00,
2013-06-25 14:00:00,72.0,-99.9,-100.00,WNW,282,30.0,30.0,-999,-99.99,,,-99.99,,2013-06-25 20:00:00,
2013-06-25 14:43:00,72.0,-99.9,-100.00,WNW,282,30.0,30.0,-999,-99.99,,,-99.99,,2013-06-25 20:43:00,
2013-06-25 14:52:00,72.0,-99.9,-100.00,WNW,282,30.0,30.0,-999,-99.99,,,-99.99,,2013-06-25 20:52:00,
2013-06-25 15:00:00,71.0,-99.9,-100.00,WSW,251,16.0,19.0,-999,-99.99,,,-99.99,,2013-06-25 21:00:00,
2013-06-25 15:43:00,71.0,-99.9,-100.00,WSW,251,16.0,19.0,-999,-99.99,,,-99.99,,2013-06-25 21:43:00,
2013-06-25 15:53:00,71.0,-99.9,-100.00,WSW,251,16.0,19.0,-999,-99.99,,,-99.99,,2013-06-25 21:53:00,
2013-06-25 16:00:00,70.0,-99.9,-100.00,WSW,247,15.0,16.0,-999,-99.99,,,-99.99,,2013-06-25 22:00:00,
2013-06-25 16:42:00,70.0,-99.9,-100.00,WSW,247,15.0,16.0,-999,-99.99,,,-99.99,,2013-06-25 22:42:00,
2013-06-25 16:52:00,70.0,-99.9,-100.00,WSW,247,15.0,16.0,-999,-99.99,,,-99.99,,2013-06-25 22:52:00,
2013-06-25 17:00:00,69.0,-99.9,-100.00,WNW,288,12.0,13.0,-999,-99.99,,,-99.99,,2013-06-25 23:00:00,
2013-06-25 17:44:00,69.0,-99.9,-100.00,WNW,288,12.0,13.0,-999,-99.99,,,-99.99,,2013-06-25 23:44:00,
2013-06-25 17:52:00,69.0,-99.9,-100.00,WNW,288,12.0,13.0,-999,-99.99,,,-99.99,,2013-06-25 23:52:00,
2013-06-25 19:00:00,71.0,-99.9,-100.00,WSW,257,12.0,21.0,-999,-99.99,,,-99.99,,2013-06-26 01:00:00,
2013-06-25 19:44:00,71.0,-99.9,-100.00,WSW,257,12.0,21.0,-999,-99.99,,,-99.99,,2013-06-26 01:44:00,
2013-06-25 19:53:00,71.0,-99.9,-100.00,WSW,257,12.0,21.0,-999,-99.99,,,-99.99,,2013-06-26 01:53:00,
2013-06-25 20:00:00,69.0,-99.9,-100.00,WSW,239,11.0,17.0,-999,-99.99,,,-99.99,,2013-06-26 02:00:00,
2013-06-25 20:44:00,69.0,-99.9,-100.00,WSW,239,11.0,17.0,-999,-99.99,,,-99.99,,2013-06-26 02:44:00,
2013-06-25 20:53:00,69.0,-99.9,-100.00,WSW,239,11.0,17.0,-999,-99.99,,,-99.99,,2013-06-26 02:53:00,
2013-06-25 21:00:00,64.0,-99.9,-100.00,SW,231,10.0,12.0,-999,-99.99,,,-99.99,,2013-06-26 03:00:00,
2013-06-25 21:33:00,64.0,-99.9,-100.00,SW,231,10.0,12.0,-999,-99.99,,,-99.99,,2013-06-26 03:33:00,
2013-06-25 21:43:00,64.0,-99.9,-100.00,SW,231,10.0,12.0,-999,-99.99,,,-99.99,,2013-06-26 03:43:00,
2013-06-25 21:52:00,64.0,-99.9,-100.00,SW,231,10.0,12.0,-999,-99.99,,,-99.99,,2013-06-26 03:52:00,
2013-06-25 22:00:00,60.0,-99.9,-100.00,SSW,203,2.0,6.0,-999,-99.99,,,-99.99,,2013-06-26 04:00:00,
2013-06-25 22:33:00,60.0,-99.9,-100.00,SSW,203,2.0,6.0,-999,-99.99,,,-99.99,,2013-06-26 04:33:00,
2013-06-25 22:43:00,60.0,-99.9,-100.00,SSW,203,2.0,6.0,-999,-99.99,,,-99.99,,2013-06-26 04:43:00,
2013-06-25 22:53:00,60.0,-99.9,-100.00,SSW,203,2.0,6.0,-999,-99.99,,,-99.99,,2013-06-26 04:53:00,
2013-06-25 23:00:00,56.0,-99.9,-100.00,SW,216,11.0,11.0,-999,-99.99,,,-99.99,,2013-06-26 05:00:00,
2013-06-25 23:43:00,56.0,-99.9,-100.00,SW,216,11.0,11.0,-999,-99.99,,,-99.99,,2013-06-26 05:43:00,
2013-06-25 23:52:00,56.0,-99.9,-100.00,SW,216,11.0,11.0,-999,-99.99,,,-99.99,,2013-06-26 05:52:00,